sensor_id;sensor_type;location;lat;lon;timestamp;temperature;humidity
8180;DHT22;4131;48.810;11.892;2022-11-28T00:01:33;2.20;99.90
8180;DHT22;4131;48.810;11.892;2022-11-28T00:04:03;2.20;99.90
8180;DHT22;4131;48.810;11.892;2022-11-28T00:06:31;2.20;99.90
8180;DHT22;4131;48.810;11.892;2022-11-28T00:09:06;2.20;99.90
8180;DHT22;4131;48.810;11.892;2022-11-28T00:11:34;3.40;99.90
8180;DHT22;4131;48.810;11.892;2022-11-28T00:14:02;3.50;99.90
8180;DHT22;4131;48.810;11.892;2022-11-28T00:16:30;2.30;99.90
8180;DHT22;4131;48.810;11.892;2022-11-28T00:18:59;3.00;99.90
8180;DHT22;4131;48.810;11.892;2022-11-28T00:21:28;2.20;99.90
8180;DHT22;4131;48.810;11.892;2022-11-28T00:23:57;2.50;99.90
8180;DHT22;4131;48.810;11.892;2022-11-28T00:26:30;2.40;99.90
8180;DHT22;4131;48.810;11.892;2022-11-28T00:28:59;2.90;99.90
8180;DHT22;4131;48.810;11.892;2022-11-28T00:31:29;2.30;99.90
8180;DHT22;4131;48.810;11.892;2022-11-28T00:33:58;2.30;99.90
8180;DHT22;4131;48.810;11.892;2022-11-28T00:36:28;2.30;99.90
8180;DHT22;4131;48.810;11.892;2022-11-28T00:38:56;2.80;99.90
8180;DHT22;4131;48.810;11.892;2022-11-28T00:41:28;2.30;99.90
8180;DHT22;4131;48.810;11.892;2022-11-28T00:43:57;2.30;99.90
8180;DHT22;4131;48.810;11.892;2022-11-28T00:46:25;2.30;99.90
8180;DHT22;4131;48.810;11.892;2022-11-28T00:48:53;2.30;99.90
8180;DHT22;4131;48.810;11.892;2022-11-28T00:51:23;3.70;99.90
8180;DHT22;4131;48.810;11.892;2022-11-28T00:53:54;2.30;99.90
8180;DHT22;4131;48.810;11.892;2022-11-28T00:56:24;2.30;99.90
8180;DHT22;4131;48.810;11.892;2022-11-28T00:58:54;2.30;99.90
8180;DHT22;4131;48.810;11.892;2022-11-28T01:01:24;2.30;99.90
8180;DHT22;4131;48.810;11.892;2022-11-28T01:03:54;2.30;99.90
8180;DHT22;4131;48.810;11.892;2022-11-28T01:06:24;2.30;99.90
8180;DHT22;4131;48.810;11.892;2022-11-28T01:08:53;2.30;99.90
8180;DHT22;4131;48.810;11.892;2022-11-28T01:11:22;2.30;99.90
8180;DHT22;4131;48.810;11.892;2022-11-28T01:13:54;2.30;99.90
8180;DHT22;4131;48.810;11.892;2022-11-28T01:16:23;2.30;99.90
8180;DHT22;4131;48.810;11.892;2022-11-28T01:18:51;2.60;99.90
8180;DHT22;4131;48.810;11.892;2022-11-28T01:21:19;2.30;99.90
8180;DHT22;4131;48.810;11.892;2022-11-28T01:23:48;2.30;99.90
8180;DHT22;4131;48.810;11.892;2022-11-28T01:26:19;2.30;99.90
8180;DHT22;4131;48.810;11.892;2022-11-28T01:28:47;2.30;99.90
8180;DHT22;4131;48.810;11.892;2022-11-28T01:31:19;2.30;99.90
8180;DHT22;4131;48.810;11.892;2022-11-28T01:33:48;2.30;99.90
8180;DHT22;4131;48.810;11.892;2022-11-28T01:36:16;2.70;99.90
8180;DHT22;4131;48.810;11.892;2022-11-28T01:38:45;2.30;99.90
8180;DHT22;4131;48.810;11.892;2022-11-28T01:41:14;2.40;99.90
8180;DHT22;4131;48.810;11.892;2022-11-28T01:44:07;2.30;99.90
8180;DHT22;4131;48.810;11.892;2022-11-28T01:46:37;2.30;99.90
8180;DHT22;4131;48.810;11.892;2022-11-28T01:49:10;2.30;99.90
8180;DHT22;4131;48.810;11.892;2022-11-28T01:51:43;2.30;99.90
8180;DHT22;4131;48.810;11.892;2022-11-28T01:54:13;2.30;99.90
8180;DHT22;4131;48.810;11.892;2022-11-28T01:56:46;2.40;99.90
8180;DHT22;4131;48.810;11.892;2022-11-28T01:59:18;2.30;99.90
8180;DHT22;4131;48.810;11.892;2022-11-28T02:01:49;2.30;99.90
8180;DHT22;4131;48.810;11.892;2022-11-28T02:04:18;2.30;99.90
8180;DHT22;4131;48.810;11.892;2022-11-28T02:06:46;2.30;99.90
8180;DHT22;4131;48.810;11.892;2022-11-28T02:09:15;2.30;99.90
8180;DHT22;4131;48.810;11.892;2022-11-28T02:12:03;2.30;99.90
8180;DHT22;4131;48.810;11.892;2022-11-28T02:14:54;2.30;99.90
8180;DHT22;4131;48.810;11.892;2022-11-28T02:17:36;2.30;99.90
8180;DHT22;4131;48.810;11.892;2022-11-28T02:20:29;2.30;99.90
8180;DHT22;4131;48.810;11.892;2022-11-28T02:23:04;2.30;99.90
8180;DHT22;4131;48.810;11.892;2022-11-28T02:26:01;2.30;99.90
8180;DHT22;4131;48.810;11.892;2022-11-28T02:28:57;2.20;99.90
8180;DHT22;4131;48.810;11.892;2022-11-28T02:31:52;2.30;99.90
8180;DHT22;4131;48.810;11.892;2022-11-28T02:34:26;2.30;99.90
8180;DHT22;4131;48.810;11.892;2022-11-28T02:37:02;2.20;99.90
8180;DHT22;4131;48.810;11.892;2022-11-28T02:39:39;2.80;99.90
8180;DHT22;4131;48.810;11.892;2022-11-28T02:42:13;2.20;99.90
8180;DHT22;4131;48.810;11.892;2022-11-28T02:44:50;2.70;99.90
8180;DHT22;4131;48.810;11.892;2022-11-28T02:47:26;2.20;99.90
8180;DHT22;4131;48.810;11.892;2022-11-28T02:50:04;2.20;99.90
8180;DHT22;4131;48.810;11.892;2022-11-28T02:52:35;2.90;99.90
8180;DHT22;4131;48.810;11.892;2022-11-28T02:55:06;2.40;99.90
8180;DHT22;4131;48.810;11.892;2022-11-28T02:57:36;2.20;99.90
8180;DHT22;4131;48.810;11.892;2022-11-28T03:00:23;2.20;99.90
8180;DHT22;4131;48.810;11.892;2022-11-28T03:05:45;2.30;99.90
8180;DHT22;4131;48.810;11.892;2022-11-28T03:08:30;2.40;99.90
8180;DHT22;4131;48.810;11.892;2022-11-28T03:11:09;2.20;99.90
8180;DHT22;4131;48.810;11.892;2022-11-28T03:13:48;2.30;99.90
8180;DHT22;4131;48.810;11.892;2022-11-28T03:16:26;2.30;99.90
8180;DHT22;4131;48.810;11.892;2022-11-28T03:19:01;2.20;99.90
8180;DHT22;4131;48.810;11.892;2022-11-28T03:21:37;2.30;99.90
8180;DHT22;4131;48.810;11.892;2022-11-28T03:24:10;2.20;99.90
8180;DHT22;4131;48.810;11.892;2022-11-28T03:26:45;2.90;99.90
8180;DHT22;4131;48.810;11.892;2022-11-28T03:29:20;2.20;99.90
8180;DHT22;4131;48.810;11.892;2022-11-28T03:31:52;2.20;99.90
8180;DHT22;4131;48.810;11.892;2022-11-28T03:34:29;2.20;99.90
8180;DHT22;4131;48.810;11.892;2022-11-28T03:37:02;2.20;99.90
8180;DHT22;4131;48.810;11.892;2022-11-28T03:39:35;2.20;99.90
8180;DHT22;4131;48.810;11.892;2022-11-28T03:42:08;2.20;99.90
8180;DHT22;4131;48.810;11.892;2022-11-28T03:44:39;2.20;99.90
8180;DHT22;4131;48.810;11.892;2022-11-28T03:47:10;2.10;99.90
8180;DHT22;4131;48.810;11.892;2022-11-28T03:49:43;2.10;99.90
8180;DHT22;4131;48.810;11.892;2022-11-28T03:52:17;2.10;99.90
8180;DHT22;4131;48.810;11.892;2022-11-28T03:54:50;2.20;99.90
8180;DHT22;4131;48.810;11.892;2022-11-28T03:57:26;2.20;99.90
8180;DHT22;4131;48.810;11.892;2022-11-28T03:59:58;2.20;99.90
8180;DHT22;4131;48.810;11.892;2022-11-28T04:02:31;2.20;99.90
8180;DHT22;4131;48.810;11.892;2022-11-28T04:05:06;2.10;99.90
8180;DHT22;4131;48.810;11.892;2022-11-28T04:07:44;2.10;99.90
8180;DHT22;4131;48.810;11.892;2022-11-28T04:10:18;2.10;99.90
8180;DHT22;4131;48.810;11.892;2022-11-28T04:12:52;3.00;99.90
8180;DHT22;4131;48.810;11.892;2022-11-28T04:15:30;2.00;99.90
8180;DHT22;4131;48.810;11.892;2022-11-28T04:18:05;2.10;99.90
8180;DHT22;4131;48.810;11.892;2022-11-28T04:20:42;2.10;99.90
8180;DHT22;4131;48.810;11.892;2022-11-28T04:23:15;2.20;99.90
8180;DHT22;4131;48.810;11.892;2022-11-28T04:25:50;2.10;99.90
8180;DHT22;4131;48.810;11.892;2022-11-28T04:28:22;2.10;99.90
8180;DHT22;4131;48.810;11.892;2022-11-28T04:30:52;2.50;99.90
8180;DHT22;4131;48.810;11.892;2022-11-28T04:33:23;2.20;99.90
8180;DHT22;4131;48.810;11.892;2022-11-28T04:35:55;2.20;99.90
8180;DHT22;4131;48.810;11.892;2022-11-28T04:38:25;2.10;99.90
8180;DHT22;4131;48.810;11.892;2022-11-28T04:41:00;2.10;99.90
8180;DHT22;4131;48.810;11.892;2022-11-28T04:43:32;2.10;99.90
8180;DHT22;4131;48.810;11.892;2022-11-28T04:46:06;2.10;99.90
8180;DHT22;4131;48.810;11.892;2022-11-28T04:48:36;2.10;99.90
8180;DHT22;4131;48.810;11.892;2022-11-28T04:51:14;2.10;99.90
8180;DHT22;4131;48.810;11.892;2022-11-28T04:53:49;2.20;99.90
8180;DHT22;4131;48.810;11.892;2022-11-28T04:56:23;2.80;99.90
8180;DHT22;4131;48.810;11.892;2022-11-28T04:58:54;2.10;99.90
8180;DHT22;4131;48.810;11.892;2022-11-28T05:01:26;2.10;99.90
8180;DHT22;4131;48.810;11.892;2022-11-28T05:03:55;2.10;99.90
8180;DHT22;4131;48.810;11.892;2022-11-28T05:06:26;2.00;99.90
8180;DHT22;4131;48.810;11.892;2022-11-28T05:08:54;2.80;99.90
8180;DHT22;4131;48.810;11.892;2022-11-28T05:11:23;2.10;99.90
8180;DHT22;4131;48.810;11.892;2022-11-28T05:13:51;2.10;99.90
8180;DHT22;4131;48.810;11.892;2022-11-28T05:16:20;2.00;99.90
8180;DHT22;4131;48.810;11.892;2022-11-28T05:18:48;2.60;99.90
8180;DHT22;4131;48.810;11.892;2022-11-28T05:21:16;2.10;99.90
8180;DHT22;4131;48.810;11.892;2022-11-28T05:23:46;2.10;99.90
8180;DHT22;4131;48.810;11.892;2022-11-28T05:26:16;2.00;99.90
8180;DHT22;4131;48.810;11.892;2022-11-28T05:28:45;2.00;99.90
8180;DHT22;4131;48.810;11.892;2022-11-28T05:31:14;2.20;99.90
8180;DHT22;4131;48.810;11.892;2022-11-28T05:33:42;2.00;99.90
8180;DHT22;4131;48.810;11.892;2022-11-28T05:36:12;2.00;99.90
8180;DHT22;4131;48.810;11.892;2022-11-28T05:38:42;2.00;99.90
8180;DHT22;4131;48.810;11.892;2022-11-28T05:41:19;2.00;99.90
8180;DHT22;4131;48.810;11.892;2022-11-28T05:43:47;2.00;99.90
8180;DHT22;4131;48.810;11.892;2022-11-28T05:46:16;2.00;99.90
8180;DHT22;4131;48.810;11.892;2022-11-28T05:48:45;2.10;99.90
8180;DHT22;4131;48.810;11.892;2022-11-28T05:51:13;2.00;99.90
8180;DHT22;4131;48.810;11.892;2022-11-28T05:53:41;3.20;99.90
8180;DHT22;4131;48.810;11.892;2022-11-28T05:56:11;2.10;99.90
8180;DHT22;4131;48.810;11.892;2022-11-28T05:58:41;2.00;99.90
8180;DHT22;4131;48.810;11.892;2022-11-28T06:01:11;2.10;99.90
8180;DHT22;4131;48.810;11.892;2022-11-28T06:03:40;2.10;99.90
8180;DHT22;4131;48.810;11.892;2022-11-28T06:06:11;2.10;99.90
8180;DHT22;4131;48.810;11.892;2022-11-28T06:08:39;2.10;99.90
8180;DHT22;4131;48.810;11.892;2022-11-28T06:11:08;2.50;99.90
8180;DHT22;4131;48.810;11.892;2022-11-28T06:13:36;2.10;99.90
8180;DHT22;4131;48.810;11.892;2022-11-28T06:16:08;2.00;99.90
8180;DHT22;4131;48.810;11.892;2022-11-28T06:18:38;2.00;99.90
8180;DHT22;4131;48.810;11.892;2022-11-28T06:21:07;2.30;99.90
8180;DHT22;4131;48.810;11.892;2022-11-28T06:23:35;2.00;99.90
8180;DHT22;4131;48.810;11.892;2022-11-28T06:26:05;2.00;99.90
8180;DHT22;4131;48.810;11.892;2022-11-28T06:28:34;2.00;99.90
8180;DHT22;4131;48.810;11.892;2022-11-28T06:31:03;2.00;99.90
8180;DHT22;4131;48.810;11.892;2022-11-28T06:33:32;1.90;99.90
8180;DHT22;4131;48.810;11.892;2022-11-28T06:36:01;3.40;99.90
8180;DHT22;4131;48.810;11.892;2022-11-28T06:38:30;1.90;99.90
8180;DHT22;4131;48.810;11.892;2022-11-28T06:41:00;1.90;99.90
8180;DHT22;4131;48.810;11.892;2022-11-28T06:43:31;3.10;99.90
8180;DHT22;4131;48.810;11.892;2022-11-28T06:45:59;1.50;99.90
8180;DHT22;4131;48.810;11.892;2022-11-28T06:48:27;1.90;99.90
8180;DHT22;4131;48.810;11.892;2022-11-28T06:51:03;1.90;99.90
8180;DHT22;4131;48.810;11.892;2022-11-28T06:53:33;1.90;99.90
8180;DHT22;4131;48.810;11.892;2022-11-28T06:56:05;1.90;99.90
8180;DHT22;4131;48.810;11.892;2022-11-28T06:58:34;2.00;99.90
8180;DHT22;4131;48.810;11.892;2022-11-28T07:01:08;1.90;99.90
8180;DHT22;4131;48.810;11.892;2022-11-28T07:03:37;1.90;99.90
8180;DHT22;4131;48.810;11.892;2022-11-28T07:06:08;1.90;99.90
8180;DHT22;4131;48.810;11.892;2022-11-28T07:08:37;2.00;99.90
8180;DHT22;4131;48.810;11.892;2022-11-28T07:11:10;2.00;99.90
8180;DHT22;4131;48.810;11.892;2022-11-28T07:13:40;2.00;99.90
8180;DHT22;4131;48.810;11.892;2022-11-28T07:16:13;2.10;99.90
8180;DHT22;4131;48.810;11.892;2022-11-28T07:18:43;2.10;99.90
8180;DHT22;4131;48.810;11.892;2022-11-28T07:21:13;2.30;99.90
8180;DHT22;4131;48.810;11.892;2022-11-28T07:23:42;2.10;99.90
8180;DHT22;4131;48.810;11.892;2022-11-28T07:26:11;2.20;99.90
8180;DHT22;4131;48.810;11.892;2022-11-28T07:28:41;2.20;99.90
8180;DHT22;4131;48.810;11.892;2022-11-28T07:31:13;2.20;99.90
8180;DHT22;4131;48.810;11.892;2022-11-28T07:33:43;2.20;99.90
8180;DHT22;4131;48.810;11.892;2022-11-28T07:36:15;2.30;99.90
8180;DHT22;4131;48.810;11.892;2022-11-28T07:38:46;2.30;99.90
8180;DHT22;4131;48.810;11.892;2022-11-28T07:41:14;2.30;99.90
8180;DHT22;4131;48.810;11.892;2022-11-28T07:43:44;2.30;99.90
8180;DHT22;4131;48.810;11.892;2022-11-28T07:46:14;2.30;99.90
8180;DHT22;4131;48.810;11.892;2022-11-28T07:48:43;2.30;99.90
8180;DHT22;4131;48.810;11.892;2022-11-28T07:51:14;2.20;99.90
8180;DHT22;4131;48.810;11.892;2022-11-28T07:53:42;2.30;99.90
8180;DHT22;4131;48.810;11.892;2022-11-28T07:56:13;2.50;99.90
8180;DHT22;4131;48.810;11.892;2022-11-28T07:58:44;3.40;99.90
8180;DHT22;4131;48.810;11.892;2022-11-28T08:01:14;2.40;99.90
8180;DHT22;4131;48.810;11.892;2022-11-28T08:03:43;3.40;99.90
8180;DHT22;4131;48.810;11.892;2022-11-28T08:06:13;2.40;99.90
8180;DHT22;4131;48.810;11.892;2022-11-28T08:08:42;2.50;99.90
8180;DHT22;4131;48.810;11.892;2022-11-28T08:11:11;3.00;99.90
8180;DHT22;4131;48.810;11.892;2022-11-28T08:13:40;2.50;99.90
8180;DHT22;4131;48.810;11.892;2022-11-28T08:16:11;2.80;99.90
8180;DHT22;4131;48.810;11.892;2022-11-28T08:18:40;2.60;99.90
8180;DHT22;4131;48.810;11.892;2022-11-28T08:21:10;2.70;99.90
8180;DHT22;4131;48.810;11.892;2022-11-28T08:23:40;2.70;99.90
8180;DHT22;4131;48.810;11.892;2022-11-28T08:26:12;2.70;99.90
8180;DHT22;4131;48.810;11.892;2022-11-28T08:28:41;2.70;99.90
8180;DHT22;4131;48.810;11.892;2022-11-28T08:31:10;2.70;99.90
8180;DHT22;4131;48.810;11.892;2022-11-28T08:33:39;2.70;99.90
8180;DHT22;4131;48.810;11.892;2022-11-28T08:36:09;2.70;99.90
8180;DHT22;4131;48.810;11.892;2022-11-28T08:38:39;2.80;99.90
8180;DHT22;4131;48.810;11.892;2022-11-28T08:41:21;2.80;99.90
8180;DHT22;4131;48.810;11.892;2022-11-28T08:43:50;2.90;99.90
8180;DHT22;4131;48.810;11.892;2022-11-28T08:46:19;2.80;99.90
8180;DHT22;4131;48.810;11.892;2022-11-28T08:48:49;3.40;99.90
8180;DHT22;4131;48.810;11.892;2022-11-28T08:51:19;2.90;99.90
8180;DHT22;4131;48.810;11.892;2022-11-28T08:53:51;2.90;99.90
8180;DHT22;4131;48.810;11.892;2022-11-28T08:56:25;3.60;99.90
8180;DHT22;4131;48.810;11.892;2022-11-28T08:58:53;3.20;99.90
8180;DHT22;4131;48.810;11.892;2022-11-28T09:01:22;3.00;99.90
8180;DHT22;4131;48.810;11.892;2022-11-28T09:03:51;3.00;99.90
8180;DHT22;4131;48.810;11.892;2022-11-28T09:06:21;3.20;99.90
8180;DHT22;4131;48.810;11.892;2022-11-28T09:08:52;4.40;99.90
8180;DHT22;4131;48.810;11.892;2022-11-28T09:11:21;3.80;99.90
8180;DHT22;4131;48.810;11.892;2022-11-28T09:13:49;3.80;99.90
8180;DHT22;4131;48.810;11.892;2022-11-28T09:16:18;4.30;99.90
8180;DHT22;4131;48.810;11.892;2022-11-28T09:18:47;4.50;99.90
8180;DHT22;4131;48.810;11.892;2022-11-28T09:21:15;4.00;99.90
8180;DHT22;4131;48.810;11.892;2022-11-28T09:23:44;4.70;99.90
8180;DHT22;4131;48.810;11.892;2022-11-28T09:26:14;3.20;99.90
8180;DHT22;4131;48.810;11.892;2022-11-28T09:28:43;3.30;99.90
8180;DHT22;4131;48.810;11.892;2022-11-28T09:31:11;3.70;99.90
8180;DHT22;4131;48.810;11.892;2022-11-28T09:33:40;3.40;99.90
8180;DHT22;4131;48.810;11.892;2022-11-28T09:36:11;3.40;99.90
8180;DHT22;4131;48.810;11.892;2022-11-28T09:38:39;3.40;99.90
8180;DHT22;4131;48.810;11.892;2022-11-28T09:41:34;3.50;99.90
8180;DHT22;4131;48.810;11.892;2022-11-28T09:44:11;3.40;99.90
8180;DHT22;4131;48.810;11.892;2022-11-28T09:46:42;3.40;99.90
8180;DHT22;4131;48.810;11.892;2022-11-28T09:49:26;3.50;99.90
8180;DHT22;4131;48.810;11.892;2022-11-28T09:52:12;4.80;99.90
8180;DHT22;4131;48.810;11.892;2022-11-28T09:54:47;3.70;99.90
8180;DHT22;4131;48.810;11.892;2022-11-28T09:57:25;3.80;99.90
8180;DHT22;4131;48.810;11.892;2022-11-28T09:59:57;3.80;99.90
8180;DHT22;4131;48.810;11.892;2022-11-28T10:02:28;3.80;99.90
8180;DHT22;4131;48.810;11.892;2022-11-28T10:05:04;3.80;99.90
8180;DHT22;4131;48.810;11.892;2022-11-28T10:07:47;3.80;99.90
8180;DHT22;4131;48.810;11.892;2022-11-28T10:10:27;3.90;99.90
8180;DHT22;4131;48.810;11.892;2022-11-28T10:13:02;4.00;99.90
8180;DHT22;4131;48.810;11.892;2022-11-28T10:15:43;4.00;99.90
8180;DHT22;4131;48.810;11.892;2022-11-28T10:18:31;4.00;99.90
8180;DHT22;4131;48.810;11.892;2022-11-28T10:21:03;4.20;99.90
8180;DHT22;4131;48.810;11.892;2022-11-28T10:23:39;5.10;99.90
8180;DHT22;4131;48.810;11.892;2022-11-28T10:26:15;5.10;99.90
8180;DHT22;4131;48.810;11.892;2022-11-28T10:28:49;4.10;99.90
8180;DHT22;4131;48.810;11.892;2022-11-28T10:31:26;5.60;99.90
8180;DHT22;4131;48.810;11.892;2022-11-28T10:33:59;4.20;99.90
8180;DHT22;4131;48.810;11.892;2022-11-28T10:36:32;4.10;99.90
8180;DHT22;4131;48.810;11.892;2022-11-28T10:39:04;5.00;99.90
8180;DHT22;4131;48.810;11.892;2022-11-28T10:41:41;4.50;99.90
8180;DHT22;4131;48.810;11.892;2022-11-28T10:44:17;4.80;99.90
8180;DHT22;4131;48.810;11.892;2022-11-28T10:46:54;4.70;99.90
8180;DHT22;4131;48.810;11.892;2022-11-28T10:49:31;4.30;99.90
8180;DHT22;4131;48.810;11.892;2022-11-28T10:52:06;4.30;99.90
8180;DHT22;4131;48.810;11.892;2022-11-28T10:55:10;4.50;99.90
8180;DHT22;4131;48.810;11.892;2022-11-28T10:57:54;4.50;99.90
8180;DHT22;4131;48.810;11.892;2022-11-28T11:00:30;4.50;99.90
8180;DHT22;4131;48.810;11.892;2022-11-28T11:03:01;4.60;99.90
8180;DHT22;4131;48.810;11.892;2022-11-28T11:05:31;4.60;99.90
8180;DHT22;4131;48.810;11.892;2022-11-28T11:08:03;4.60;99.90
8180;DHT22;4131;48.810;11.892;2022-11-28T11:10:34;4.60;99.90
8180;DHT22;4131;48.810;11.892;2022-11-28T11:13:12;5.00;99.90
8180;DHT22;4131;48.810;11.892;2022-11-28T11:15:41;5.70;99.90
8180;DHT22;4131;48.810;11.892;2022-11-28T11:18:23;4.50;99.90
8180;DHT22;4131;48.810;11.892;2022-11-28T11:21:06;4.70;99.90
8180;DHT22;4131;48.810;11.892;2022-11-28T11:23:35;4.60;99.90
8180;DHT22;4131;48.810;11.892;2022-11-28T11:26:08;4.40;99.90
8180;DHT22;4131;48.810;11.892;2022-11-28T11:28:47;4.60;99.90
8180;DHT22;4131;48.810;11.892;2022-11-28T11:31:23;6.70;99.90
8180;DHT22;4131;48.810;11.892;2022-11-28T11:34:00;5.20;99.90
8180;DHT22;4131;48.810;11.892;2022-11-28T11:36:30;5.00;99.90
8180;DHT22;4131;48.810;11.892;2022-11-28T11:39:19;4.70;99.90
8180;DHT22;4131;48.810;11.892;2022-11-28T11:41:48;4.60;99.90
8180;DHT22;4131;48.810;11.892;2022-11-28T11:44:26;4.90;99.90
8180;DHT22;4131;48.810;11.892;2022-11-28T11:46:57;4.90;99.90
8180;DHT22;4131;48.810;11.892;2022-11-28T11:49:31;5.00;99.90
8180;DHT22;4131;48.810;11.892;2022-11-28T11:52:02;5.20;99.90
8180;DHT22;4131;48.810;11.892;2022-11-28T11:54:30;5.00;99.90
8180;DHT22;4131;48.810;11.892;2022-11-28T11:56:59;4.70;99.90
8180;DHT22;4131;48.810;11.892;2022-11-28T11:59:50;5.10;99.90
8180;DHT22;4131;48.810;11.892;2022-11-28T12:02:26;6.50;99.90
8180;DHT22;4131;48.810;11.892;2022-11-28T12:05:02;5.40;99.90
8180;DHT22;4131;48.810;11.892;2022-11-28T12:07:35;6.30;99.90
8180;DHT22;4131;48.810;11.892;2022-11-28T12:10:06;5.80;99.90
8180;DHT22;4131;48.810;11.892;2022-11-28T12:12:38;5.30;99.90
8180;DHT22;4131;48.810;11.892;2022-11-28T12:15:14;5.00;99.90
8180;DHT22;4131;48.810;11.892;2022-11-28T12:17:54;5.10;99.90
8180;DHT22;4131;48.810;11.892;2022-11-28T12:20:34;5.20;99.90
8180;DHT22;4131;48.810;11.892;2022-11-28T12:23:16;5.30;99.90
8180;DHT22;4131;48.810;11.892;2022-11-28T12:25:48;5.50;99.90
8180;DHT22;4131;48.810;11.892;2022-11-28T12:28:22;5.60;99.90
8180;DHT22;4131;48.810;11.892;2022-11-28T12:31:00;5.80;99.90
8180;DHT22;4131;48.810;11.892;2022-11-28T12:33:41;7.00;99.90
8180;DHT22;4131;48.810;11.892;2022-11-28T12:36:19;5.40;99.90
8180;DHT22;4131;48.810;11.892;2022-11-28T12:38:58;5.30;99.90
8180;DHT22;4131;48.810;11.892;2022-11-28T12:41:46;5.40;99.90
8180;DHT22;4131;48.810;11.892;2022-11-28T12:44:25;5.60;99.90
8180;DHT22;4131;48.810;11.892;2022-11-28T12:47:03;6.10;99.90
8180;DHT22;4131;48.810;11.892;2022-11-28T12:49:42;5.80;99.90
8180;DHT22;4131;48.810;11.892;2022-11-28T12:52:22;5.60;99.90
8180;DHT22;4131;48.810;11.892;2022-11-28T12:55:19;5.70;99.90
8180;DHT22;4131;48.810;11.892;2022-11-28T12:57:52;5.70;99.90
8180;DHT22;4131;48.810;11.892;2022-11-28T13:00:24;5.70;99.90
8180;DHT22;4131;48.810;11.892;2022-11-28T13:03:09;6.10;99.90
8180;DHT22;4131;48.810;11.892;2022-11-28T13:05:48;5.60;99.90
8180;DHT22;4131;48.810;11.892;2022-11-28T13:08:43;5.50;99.90
8180;DHT22;4131;48.810;11.892;2022-11-28T13:11:26;5.90;99.90
8180;DHT22;4131;48.810;11.892;2022-11-28T13:14:02;5.40;99.90
8180;DHT22;4131;48.810;11.892;2022-11-28T13:16:39;6.30;99.90
8180;DHT22;4131;48.810;11.892;2022-11-28T13:19:12;6.50;99.90
8180;DHT22;4131;48.810;11.892;2022-11-28T13:21:50;5.30;99.90
8180;DHT22;4131;48.810;11.892;2022-11-28T13:24:24;7.10;99.90
8180;DHT22;4131;48.810;11.892;2022-11-28T13:26:57;5.90;99.90
8180;DHT22;4131;48.810;11.892;2022-11-28T13:29:34;6.50;99.90
8180;DHT22;4131;48.810;11.892;2022-11-28T13:32:10;6.30;99.90
8180;DHT22;4131;48.810;11.892;2022-11-28T13:34:42;6.40;99.90
8180;DHT22;4131;48.810;11.892;2022-11-28T13:37:15;5.10;99.90
8180;DHT22;4131;48.810;11.892;2022-11-28T13:40:14;5.90;99.90
8180;DHT22;4131;48.810;11.892;2022-11-28T13:42:49;5.20;99.90
8180;DHT22;4131;48.810;11.892;2022-11-28T13:45:36;5.50;99.90
8180;DHT22;4131;48.810;11.892;2022-11-28T13:51:28;5.00;99.90
8180;DHT22;4131;48.810;11.892;2022-11-28T13:57:29;4.80;99.90
8180;DHT22;4131;48.810;11.892;2022-11-28T14:00:12;4.80;99.90
8180;DHT22;4131;48.810;11.892;2022-11-28T14:02:49;4.80;99.90
8180;DHT22;4131;48.810;11.892;2022-11-28T14:05:30;4.80;99.90
8180;DHT22;4131;48.810;11.892;2022-11-28T14:08:00;4.80;99.90
8180;DHT22;4131;48.810;11.892;2022-11-28T14:10:48;5.20;99.90
8180;DHT22;4131;48.810;11.892;2022-11-28T14:16:30;4.70;99.90
8180;DHT22;4131;48.810;11.892;2022-11-28T14:19:12;5.10;99.90
8180;DHT22;4131;48.810;11.892;2022-11-28T14:21:50;4.80;99.90
8180;DHT22;4131;48.810;11.892;2022-11-28T14:24:28;4.60;99.90
8180;DHT22;4131;48.810;11.892;2022-11-28T14:27:03;4.60;99.90
8180;DHT22;4131;48.810;11.892;2022-11-28T14:29:37;4.60;99.90
8180;DHT22;4131;48.810;11.892;2022-11-28T14:32:14;4.60;99.90
8180;DHT22;4131;48.810;11.892;2022-11-28T14:34:57;5.10;99.90
8180;DHT22;4131;48.810;11.892;2022-11-28T14:37:55;6.00;99.90
8180;DHT22;4131;48.810;11.892;2022-11-28T14:43:34;4.40;99.90
8180;DHT22;4131;48.810;11.892;2022-11-28T14:46:25;4.40;99.90
8180;DHT22;4131;48.810;11.892;2022-11-28T14:49:21;4.30;99.90
8180;DHT22;4131;48.810;11.892;2022-11-28T14:52:07;4.30;99.90
8180;DHT22;4131;48.810;11.892;2022-11-28T14:54:55;4.30;99.90
8180;DHT22;4131;48.810;11.892;2022-11-28T14:57:26;4.30;99.90
8180;DHT22;4131;48.810;11.892;2022-11-28T14:59:56;6.30;99.90
8180;DHT22;4131;48.810;11.892;2022-11-28T15:02:45;4.20;99.90
8180;DHT22;4131;48.810;11.892;2022-11-28T15:05:36;4.20;99.90
8180;DHT22;4131;48.810;11.892;2022-11-28T15:08:49;4.20;99.90
8180;DHT22;4131;48.810;11.892;2022-11-28T15:11:32;4.40;99.90
8180;DHT22;4131;48.810;11.892;2022-11-28T15:14:08;4.10;99.90
8180;DHT22;4131;48.810;11.892;2022-11-28T15:16:40;4.10;99.90
8180;DHT22;4131;48.810;11.892;2022-11-28T15:19:21;4.00;99.90
8180;DHT22;4131;48.810;11.892;2022-11-28T15:21:52;4.10;99.90
8180;DHT22;4131;48.810;11.892;2022-11-28T15:24:24;4.00;99.90
8180;DHT22;4131;48.810;11.892;2022-11-28T15:26:54;4.00;99.90
8180;DHT22;4131;48.810;11.892;2022-11-28T15:29:25;4.00;99.90
8180;DHT22;4131;48.810;11.892;2022-11-28T15:31:55;4.20;99.90
8180;DHT22;4131;48.810;11.892;2022-11-28T15:34:28;5.10;99.90
8180;DHT22;4131;48.810;11.892;2022-11-28T15:36:58;4.30;99.90
8180;DHT22;4131;48.810;11.892;2022-11-28T15:39:30;3.90;99.90
8180;DHT22;4131;48.810;11.892;2022-11-28T15:42:02;3.90;99.90
8180;DHT22;4131;48.810;11.892;2022-11-28T15:44:31;4.50;99.90
8180;DHT22;4131;48.810;11.892;2022-11-28T15:46:59;3.80;99.90
8180;DHT22;4131;48.810;11.892;2022-11-28T15:49:33;4.60;99.90
8180;DHT22;4131;48.810;11.892;2022-11-28T15:52:03;3.80;99.90
8180;DHT22;4131;48.810;11.892;2022-11-28T15:54:37;3.70;99.90
8180;DHT22;4131;48.810;11.892;2022-11-28T15:57:17;3.70;99.90
8180;DHT22;4131;48.810;11.892;2022-11-28T15:59:46;3.70;99.90
8180;DHT22;4131;48.810;11.892;2022-11-28T16:02:16;3.70;99.90
8180;DHT22;4131;48.810;11.892;2022-11-28T16:04:54;3.70;99.90
8180;DHT22;4131;48.810;11.892;2022-11-28T16:07:24;3.70;99.90
8180;DHT22;4131;48.810;11.892;2022-11-28T16:09:55;4.30;99.90
8180;DHT22;4131;48.810;11.892;2022-11-28T16:12:25;4.60;99.90
8180;DHT22;4131;48.810;11.892;2022-11-28T16:14:54;4.90;99.90
8180;DHT22;4131;48.810;11.892;2022-11-28T16:17:31;4.90;99.90
8180;DHT22;4131;48.810;11.892;2022-11-28T16:20:01;3.60;99.90
8180;DHT22;4131;48.810;11.892;2022-11-28T16:22:33;3.60;99.90
8180;DHT22;4131;48.810;11.892;2022-11-28T16:25:12;3.60;99.90
8180;DHT22;4131;48.810;11.892;2022-11-28T16:27:42;3.60;99.90
8180;DHT22;4131;48.810;11.892;2022-11-28T16:30:31;3.60;99.90
8180;DHT22;4131;48.810;11.892;2022-11-28T16:33:32;3.60;99.90
8180;DHT22;4131;48.810;11.892;2022-11-28T16:36:10;3.50;99.90
8180;DHT22;4131;48.810;11.892;2022-11-28T16:38:43;3.50;99.90
8180;DHT22;4131;48.810;11.892;2022-11-28T16:41:17;3.50;99.90
8180;DHT22;4131;48.810;11.892;2022-11-28T16:43:49;4.60;99.90
8180;DHT22;4131;48.810;11.892;2022-11-28T16:46:20;3.50;99.90
8180;DHT22;4131;48.810;11.892;2022-11-28T16:48:53;5.40;99.90
8180;DHT22;4131;48.810;11.892;2022-11-28T16:54:29;3.40;99.90
8180;DHT22;4131;48.810;11.892;2022-11-28T16:57:08;3.40;99.90
8180;DHT22;4131;48.810;11.892;2022-11-28T16:59:37;3.60;99.90
8180;DHT22;4131;48.810;11.892;2022-11-28T17:02:12;3.40;99.90
8180;DHT22;4131;48.810;11.892;2022-11-28T17:04:41;3.40;99.90